Time;durP1;ratioP1;P1;durP2;ratioP2;P2;SDS_P1;SDS_P2;PMS_P1;PMS_P2;Temp;Humidity;BMP_temperature;BMP_pressure;BME280_temperature;BME280_humidity;BME280_pressure;Samples;Min_cycle;Max_cycle;Signal;HPM_P1;HPM_P2
2020/12/20 00:01:01;;;;;;;35.88;18.38;;;9.30;99.90;;;;;;4969970;28;20093;-63
2020/12/20 00:03:27;;;;;;;31.80;17.55;;;9.30;99.90;;;;;;4968437;28;20045;-63
2020/12/20 00:05:53;;;;;;;31.05;16.92;;;9.30;99.90;;;;;;4969981;28;20048;-63
2020/12/20 00:08:19;;;;;;;32.42;16.92;;;9.40;99.90;;;;;;4968986;28;20368;-63
2020/12/20 00:10:44;;;;;;;30.05;16.05;;;9.30;99.90;;;;;;4967857;28;20482;-62
2020/12/20 00:13:10;;;;;;;35.08;17.48;;;9.40;99.90;;;;;;4967434;28;20027;-63
2020/12/20 00:15:36;;;;;;;39.22;16.45;;;9.40;99.90;;;;;;4971643;28;20026;-63
2020/12/20 00:18:02;;;;;;;35.88;17.48;;;9.30;99.90;;;;;;4967231;28;20047;-62
2020/12/20 00:20:29;;;;;;;38.17;17.25;;;9.30;99.90;;;;;;4970370;28;20061;-63
2020/12/20 00:22:55;;;;;;;32.15;16.15;;;9.40;99.90;;;;;;4968360;28;20394;-63
2020/12/20 00:25:21;;;;;;;40.33;17.45;;;9.40;99.90;;;;;;4966305;28;20034;-63
2020/12/20 00:27:47;;;;;;;33.78;17.33;;;9.40;99.90;;;;;;4971166;28;20390;-63
2020/12/20 00:30:12;;;;;;;33.15;17.63;;;9.40;99.90;;;;;;4962903;28;20169;-63
2020/12/20 00:32:38;;;;;;;31.92;16.42;;;9.40;99.90;;;;;;4966569;28;20104;-63
2020/12/20 00:35:06;;;;;;;32.13;16.58;;;9.40;99.90;;;;;;4968695;28;20085;-63
2020/12/20 00:37:32;;;;;;;33.35;15.88;;;9.40;99.90;;;;;;4965174;28;20038;-63
2020/12/20 00:39:58;;;;;;;34.08;15.65;;;9.40;99.90;;;;;;4969254;28;20030;-63
2020/12/20 00:42:23;;;;;;;32.25;16.63;;;9.50;99.90;;;;;;4965698;28;20054;-63
2020/12/20 00:44:49;;;;;;;37.42;16.17;;;9.50;99.90;;;;;;4967214;28;20023;-63
2020/12/20 00:47:15;;;;;;;32.75;15.38;;;9.50;99.90;;;;;;4970379;28;20130;-63
2020/12/20 00:49:41;;;;;;;30.85;14.38;;;9.50;99.90;;;;;;4968991;28;20037;-63
2020/12/20 00:52:07;;;;;;;32.15;15.95;;;9.50;99.90;;;;;;4968093;28;20576;-63
2020/12/20 00:54:33;;;;;;;25.50;14.25;;;9.50;99.90;;;;;;4966216;28;20034;-63
2020/12/20 00:56:59;;;;;;;40.50;15.65;;;9.60;99.90;;;;;;4969459;28;20054;-63
2020/12/20 00:59:25;;;;;;;35.45;14.25;;;9.50;99.90;;;;;;4965211;28;20077;-63
2020/12/20 01:01:51;;;;;;;29.98;13.73;;;9.50;99.90;;;;;;4969874;28;20413;-63
2020/12/20 01:04:17;;;;;;;29.00;13.38;;;9.50;99.90;;;;;;4966906;28;20038;-63
2020/12/20 01:06:43;;;;;;;31.85;13.73;;;9.60;99.90;;;;;;4969046;28;20028;-62
2020/12/20 01:09:09;;;;;;;29.30;12.68;;;9.50;99.90;;;;;;4966269;28;20561;-62
2020/12/20 01:11:35;;;;;;;26.30;12.13;;;9.60;99.90;;;;;;4968832;28;20125;-63
2020/12/20 01:14:03;;;;;;;24.70;12.48;;;9.50;99.90;;;;;;4967033;28;20033;-63
2020/12/20 01:16:29;;;;;;;28.42;12.20;;;9.50;99.90;;;;;;4969241;28;20034;-63
2020/12/20 01:18:57;;;;;;;31.95;13.40;;;9.60;99.90;;;;;;4968634;28;20473;-63
2020/12/20 01:21:22;;;;;;;31.27;12.52;;;9.60;99.90;;;;;;4967766;28;20030;-62
2020/12/20 01:23:48;;;;;;;29.80;10.73;;;9.60;99.90;;;;;;4966408;28;20251;-63
2020/12/20 01:26:15;;;;;;;28.00;12.13;;;9.60;99.90;;;;;;4967493;28;20475;-63
2020/12/20 01:28:41;;;;;;;31.55;12.80;;;9.60;99.90;;;;;;4967778;28;20069;-62
2020/12/20 01:31:08;;;;;;;27.35;11.45;;;9.60;99.90;;;;;;4967916;28;20058;-63
2020/12/20 01:33:35;;;;;;;33.00;11.77;;;9.50;99.90;;;;;;4966241;28;20022;-63
2020/12/20 01:36:08;;;;;;;24.20;10.93;;;9.60;99.90;;;;;;4969039;28;20096;-63
2020/12/20 01:38:34;;;;;;;34.35;10.25;;;9.50;99.90;;;;;;4967894;28;20120;-62
2020/12/20 01:41:00;;;;;;;27.52;11.20;;;9.50;99.90;;;;;;4967378;28;20156;-63
2020/12/20 01:43:38;;;;;;;26.83;11.10;;;9.50;99.90;;;;;;4965305;28;20400;-63
2020/12/20 01:46:04;;;;;;;27.98;12.45;;;9.50;99.90;;;;;;4968380;28;20038;-63
2020/12/20 01:48:30;;;;;;;27.27;11.23;;;9.50;99.90;;;;;;4963672;28;20030;-62
2020/12/20 01:50:55;;;;;;;29.67;11.50;;;9.50;99.90;;;;;;4959759;28;20688;-63
2020/12/20 01:53:21;;;;;;;26.60;10.20;;;9.50;99.90;;;;;;4966653;28;20050;-63
2020/12/20 01:55:48;;;;;;;31.17;13.07;;;9.50;99.90;;;;;;4969627;28;20018;-63
2020/12/20 01:58:14;;;;;;;25.25;10.60;;;9.50;99.90;;;;;;4967589;28;20068;-63
2020/12/20 02:00:40;;;;;;;31.30;11.60;;;9.50;99.90;;;;;;4968654;28;20030;-63
2020/12/20 02:03:06;;;;;;;37.90;12.63;;;9.40;99.90;;;;;;4965257;28;20684;-63
2020/12/20 02:05:31;;;;;;;24.40;10.18;;;9.50;99.90;;;;;;4965037;28;20026;-63
2020/12/20 02:07:57;;;;;;;25.58;11.48;;;9.50;99.90;;;;;;4966495;28;20062;-63
2020/12/20 02:10:23;;;;;;;33.92;13.55;;;9.50;99.90;;;;;;4968244;28;20031;-63
2020/12/20 02:12:49;;;;;;;31.65;11.23;;;9.50;99.90;;;;;;4967641;28;20428;-63
2020/12/20 02:15:15;;;;;;;24.15;11.88;;;9.50;99.90;;;;;;4963564;28;20105;-63
2020/12/20 02:17:40;;;;;;;25.00;12.07;;;9.40;99.90;;;;;;4968220;28;20360;-63
2020/12/20 02:20:06;;;;;;;30.50;11.82;;;9.40;99.90;;;;;;4966472;28;20483;-63
2020/12/20 02:22:32;;;;;;;25.65;11.40;;;9.40;99.90;;;;;;4968533;28;20076;-63
2020/12/20 02:24:59;;;;;;;23.52;11.07;;;9.40;99.90;;;;;;4965539;28;20502;-63
2020/12/20 02:27:26;;;;;;;37.78;11.77;;;9.40;99.90;;;;;;4966999;28;20050;-63
2020/12/20 02:29:52;;;;;;;24.83;11.75;;;9.40;99.90;;;;;;4960276;28;20027;-63
2020/12/20 02:32:17;;;;;;;36.92;13.10;;;9.40;99.90;;;;;;4965425;28;20418;-63
2020/12/20 02:34:43;;;;;;;33.53;12.07;;;9.40;99.90;;;;;;4961193;28;20030;-63
2020/12/20 02:37:09;;;;;;;24.02;12.05;;;9.40;99.90;;;;;;4962987;28;20069;-63
2020/12/20 02:39:38;;;;;;;23.42;10.68;;;9.40;99.90;;;;;;4964462;28;20068;-63
2020/12/20 02:42:04;;;;;;;31.73;11.43;;;9.30;99.90;;;;;;4967599;28;20023;-63
2020/12/20 02:44:30;;;;;;;27.10;10.90;;;9.30;99.90;;;;;;4965599;28;20027;-63
2020/12/20 02:46:55;;;;;;;32.80;12.88;;;9.30;99.90;;;;;;4966163;28;20100;-63
2020/12/20 02:49:21;;;;;;;32.72;12.75;;;9.30;99.90;;;;;;4966640;28;20352;-63
2020/12/20 02:51:47;;;;;;;23.48;11.77;;;9.30;99.90;;;;;;4965845;28;20553;-63
2020/12/20 02:54:13;;;;;;;22.15;11.23;;;9.30;99.90;;;;;;4964843;28;20453;-63
2020/12/20 02:56:45;;;;;;;31.00;11.27;;;9.30;99.90;;;;;;4965101;28;20141;-63
2020/12/20 02:59:11;;;;;;;23.63;11.23;;;9.30;99.90;;;;;;4966167;28;20046;-63
2020/12/20 03:01:37;;;;;;;28.63;11.27;;;9.30;99.90;;;;;;4967120;28;20754;-63
2020/12/20 03:04:03;;;;;;;26.65;11.73;;;9.30;99.90;;;;;;4965730;28;20058;-63
2020/12/20 03:06:29;;;;;;;29.27;11.93;;;9.30;99.90;;;;;;4966491;28;20113;-63
2020/12/20 03:08:55;;;;;;;27.08;11.88;;;9.30;99.90;;;;;;4962733;28;20093;-63
2020/12/20 03:11:21;;;;;;;27.20;12.23;;;9.40;99.90;;;;;;4966261;28;20117;-63
2020/12/20 03:13:47;;;;;;;24.30;12.30;;;9.40;99.90;;;;;;4966276;28;20089;-63
2020/12/20 03:16:12;;;;;;;33.17;12.43;;;9.40;99.90;;;;;;4963150;28;20062;-63
2020/12/20 03:18:38;;;;;;;33.72;11.40;;;9.40;99.90;;;;;;4969502;28;20043;-63
2020/12/20 03:21:04;;;;;;;21.02;10.32;;;9.40;99.90;;;;;;4971815;28;20081;-63
2020/12/20 03:23:30;;;;;;;31.42;12.45;;;9.40;99.90;;;;;;4965957;28;20054;-63
2020/12/20 03:25:55;;;;;;;25.52;11.27;;;9.30;99.90;;;;;;4971323;28;20030;-63
2020/12/20 03:28:21;;;;;;;22.40;10.18;;;9.30;99.90;;;;;;4965777;28;20092;-63
2020/12/20 03:30:47;;;;;;;25.00;10.05;;;9.30;99.90;;;;;;4969359;28;20026;-63
2020/12/20 03:33:13;;;;;;;23.23;9.68;;;9.30;99.90;;;;;;4968831;28;20553;-63
2020/12/20 03:35:38;;;;;;;26.15;11.38;;;9.30;99.90;;;;;;4971196;28;20404;-63
2020/12/20 03:38:04;;;;;;;32.40;11.20;;;9.20;99.90;;;;;;4969271;28;20054;-63
2020/12/20 03:40:30;;;;;;;25.42;10.77;;;9.20;99.90;;;;;;4970645;28;20030;-63
2020/12/20 03:42:56;;;;;;;28.05;11.13;;;9.10;99.90;;;;;;4967548;28;20440;-63
2020/12/20 03:45:22;;;;;;;30.27;11.02;;;9.10;99.90;;;;;;4972173;28;20495;-63
2020/12/20 03:47:48;;;;;;;23.27;10.18;;;9.20;99.90;;;;;;4950514;28;20474;-63
2020/12/20 03:50:14;;;;;;;20.02;10.07;;;9.10;99.90;;;;;;4970750;28;20486;-63
2020/12/20 03:52:40;;;;;;;25.48;9.95;;;9.10;99.90;;;;;;4967944;28;20425;-63
2020/12/20 03:55:06;;;;;;;28.25;10.38;;;9.10;99.90;;;;;;4966861;28;20026;-63
2020/12/20 03:57:32;;;;;;;30.42;10.90;;;9.10;99.90;;;;;;4970768;28;20495;-63
2020/12/20 03:59:58;;;;;;;28.67;9.98;;;9.00;99.90;;;;;;4969528;28;20027;-63
2020/12/20 04:02:24;;;;;;;26.05;10.35;;;9.10;99.90;;;;;;4969870;28;20331;-63
2020/12/20 04:04:50;;;;;;;29.38;10.75;;;9.00;99.90;;;;;;4967043;28;20463;-63
2020/12/20 04:07:15;;;;;;;25.45;9.65;;;9.10;99.90;;;;;;4970887;28;20394;-63
2020/12/20 04:09:42;;;;;;;28.67;10.93;;;9.00;99.90;;;;;;4967754;28;20565;-63
2020/12/20 04:12:08;;;;;;;27.52;10.18;;;9.00;99.90;;;;;;4968544;28;20034;-63
2020/12/20 04:14:34;;;;;;;22.35;10.75;;;9.00;99.90;;;;;;4967701;28;20510;-63
2020/12/20 04:17:00;;;;;;;22.73;10.93;;;9.00;99.90;;;;;;4970169;28;20031;-63
2020/12/20 04:19:26;;;;;;;28.75;13.10;;;8.90;99.90;;;;;;4969487;28;20458;-63
2020/12/20 04:21:51;;;;;;;26.98;12.15;;;8.80;99.90;;;;;;4969475;28;20446;-62
2020/12/20 04:24:17;;;;;;;24.85;11.65;;;8.80;99.90;;;;;;4966991;28;20049;-63
2020/12/20 04:26:43;;;;;;;27.55;13.55;;;8.70;99.90;;;;;;4969375;28;20242;-63
2020/12/20 04:29:10;;;;;;;30.95;14.05;;;8.70;99.90;;;;;;4967470;28;20417;-63
2020/12/20 04:31:37;;;;;;;25.40;13.40;;;8.60;99.90;;;;;;4964175;28;20154;-63
2020/12/20 04:34:03;;;;;;;34.58;14.23;;;8.60;99.90;;;;;;4965521;28;20077;-63
2020/12/20 04:36:29;;;;;;;30.98;13.00;;;8.70;99.90;;;;;;4967462;28;20027;-63
2020/12/20 04:38:56;;;;;;;28.00;13.13;;;8.60;99.90;;;;;;4967992;28;20124;-63
2020/12/20 04:41:24;;;;;;;26.20;14.18;;;8.70;99.90;;;;;;4968819;28;20030;-63
2020/12/20 04:43:50;;;;;;;34.35;14.75;;;8.70;99.90;;;;;;4968146;28;20066;-63
2020/12/20 04:46:20;;;;;;;32.05;13.90;;;8.70;99.90;;;;;;4969616;28;20122;-63
2020/12/20 04:48:46;;;;;;;;;;;8.60;99.90;;;;;;4967591;28;20041;-63
2020/12/20 04:51:13;;;;;;;25.38;13.90;;;8.70;99.90;;;;;;4969955;28;20349;-63
2020/12/20 04:53:39;;;;;;;32.83;14.50;;;8.70;99.90;;;;;;4966556;28;20034;-63
2020/12/20 04:56:10;;;;;;;27.50;14.10;;;8.70;99.90;;;;;;4968759;28;20608;-63
2020/12/20 04:58:38;;;;;;;32.25;14.98;;;8.70;99.90;;;;;;4967118;28;20510;-63
2020/12/20 05:01:05;;;;;;;26.33;13.25;;;8.70;99.90;;;;;;4969101;28;20030;-63
2020/12/20 05:03:31;;;;;;;29.48;13.95;;;8.70;99.90;;;;;;4968383;28;20604;-63
2020/12/20 05:05:57;;;;;;;28.30;14.95;;;8.70;99.90;;;;;;4968452;28;20053;-62
2020/12/20 05:08:24;;;;;;;28.88;14.70;;;8.70;99.90;;;;;;4969048;28;20180;-63
2020/12/20 05:10:51;;;;;;;24.38;14.65;;;8.60;99.90;;;;;;4966189;28;20037;-63
2020/12/20 05:13:18;;;;;;;27.50;16.00;;;8.60;99.90;;;;;;4967649;28;20114;-63
2020/12/20 05:15:44;;;;;;;25.63;15.18;;;8.60;99.90;;;;;;4966679;28;20042;-63
2020/12/20 05:18:12;;;;;;;31.27;15.82;;;8.60;99.90;;;;;;4967111;28;20413;-63
2020/12/20 05:20:47;;;;;;;28.10;15.77;;;8.50;99.90;;;;;;4967813;28;20062;-63
2020/12/20 05:23:16;;;;;;;25.23;14.45;;;8.60;99.90;;;;;;4962412;28;20068;-63
2020/12/20 05:25:43;;;;;;;27.48;17.80;;;8.50;99.90;;;;;;4967907;28;20126;-63
2020/12/20 05:28:17;;;;;;;31.70;18.90;;;8.50;99.90;;;;;;4950507;28;20042;-63
2020/12/20 05:30:45;;;;;;;30.02;18.13;;;8.60;99.90;;;;;;4968081;28;20054;-63
2020/12/20 05:33:24;;;;;;;26.73;17.35;;;8.60;99.90;;;;;;4959999;28;20034;-63
2020/12/20 05:36:00;;;;;;;26.48;16.85;;;8.60;99.90;;;;;;4967313;28;20154;-63
2020/12/20 05:38:27;;;;;;;36.67;18.25;;;8.50;99.90;;;;;;4968631;28;20057;-63
2020/12/20 05:40:52;;;;;;;33.42;19.60;;;8.60;99.90;;;;;;4964742;28;20027;-63
2020/12/20 05:43:23;;;;;;;31.38;18.92;;;8.60;99.90;;;;;;4966252;28;21703;-63
2020/12/20 05:45:49;;;;;;;35.50;18.83;;;8.50;99.90;;;;;;4969074;28;20092;-62
2020/12/20 05:48:17;;;;;;;38.40;20.75;;;8.50;99.90;;;;;;4965168;28;20137;-63
2020/12/20 05:50:56;;;;;;;39.58;19.50;;;8.50;99.90;;;;;;4967391;28;20145;-63
2020/12/20 05:53:27;;;;;;;40.80;20.23;;;8.50;99.90;;;;;;4965662;28;20045;-63
2020/12/20 05:55:54;;;;;;;32.83;19.35;;;8.40;99.90;;;;;;4968376;28;20023;-63
2020/12/20 05:58:21;;;;;;;38.75;20.73;;;8.40;99.90;;;;;;4956832;28;20162;-63
2020/12/20 06:00:47;;;;;;;33.63;20.17;;;8.40;99.90;;;;;;4967734;28;20034;-63
2020/12/20 06:03:14;;;;;;;43.28;21.20;;;8.40;99.90;;;;;;4964601;28;20053;-63
2020/12/20 06:05:41;;;;;;;39.20;20.88;;;8.40;99.90;;;;;;4965958;28;20034;-63
2020/12/20 06:08:12;;;;;;;37.63;22.77;;;8.40;99.90;;;;;;4966200;28;20030;-63
2020/12/20 06:10:41;;;;;;;47.65;23.27;;;8.30;99.90;;;;;;4962473;28;20481;-63
2020/12/20 06:13:09;;;;;;;35.63;21.88;;;8.30;99.90;;;;;;4967752;28;20041;-63
2020/12/20 06:15:37;;;;;;;39.30;20.90;;;8.40;99.90;;;;;;4960637;28;20085;-63
2020/12/20 06:18:10;;;;;;;40.15;22.38;;;8.30;99.90;;;;;;4965220;28;20042;-63
2020/12/20 06:20:55;;;;;;;40.35;24.20;;;8.40;99.90;;;;;;4966095;28;20065;-63
2020/12/20 06:23:27;;;;;;;53.50;25.38;;;8.30;99.90;;;;;;4960390;28;20509;-63
2020/12/20 06:25:57;;;;;;;37.25;22.60;;;8.30;99.90;;;;;;4967504;28;20019;-63
2020/12/20 06:28:31;;;;;;;38.45;22.88;;;8.30;99.90;;;;;;4960244;28;20506;-63
2020/12/20 06:30:57;;;;;;;38.97;22.40;;;8.30;99.90;;;;;;4964113;28;20097;-63
2020/12/20 06:33:36;;;;;;;38.95;23.63;;;8.30;99.90;;;;;;4960768;28;20035;-63
2020/12/20 06:36:13;;;;;;;35.70;23.57;;;8.30;99.90;;;;;;4949341;28;20089;-63
2020/12/20 06:38:40;;;;;;;41.92;22.80;;;8.30;99.90;;;;;;4964640;28;20051;-63
2020/12/20 06:41:07;;;;;;;39.45;23.42;;;8.30;99.90;;;;;;4968322;28;20112;-63
2020/12/20 06:43:37;;;;;;;37.63;22.58;;;8.30;99.90;;;;;;4964862;28;20038;-63
2020/12/20 06:46:06;;;;;;;;;;;8.30;99.90;;;;;;4966922;28;20776;-63
2020/12/20 06:48:37;;;;;;;37.40;20.92;;;8.30;99.90;;;;;;4962711;28;20396;-63
2020/12/20 06:51:05;;;;;;;46.38;24.85;;;8.30;99.90;;;;;;4966087;28;20352;-63
2020/12/20 06:53:46;;;;;;;42.03;24.48;;;8.30;99.90;;;;;;4963472;28;20455;-63
2020/12/20 06:56:23;;;;;;;45.78;24.02;;;8.30;99.90;;;;;;4966375;28;20500;-62
2020/12/20 06:58:51;;;;;;;40.92;25.50;;;8.30;99.90;;;;;;4962073;28;20073;-63
2020/12/20 07:01:37;;;;;;;45.03;23.80;;;8.30;99.90;;;;;;4942646;28;20357;-63
2020/12/20 07:04:05;;;;;;;44.95;23.77;;;8.30;99.90;;;;;;4962307;28;20078;-63
2020/12/20 07:06:31;;;;;;;48.08;23.10;;;8.40;99.90;;;;;;4964060;28;20042;-63
2020/12/20 07:09:04;;;;;;;42.65;21.70;;;8.30;99.90;;;;;;4965569;28;20657;-63
2020/12/20 07:11:30;;;;;;;43.33;23.92;;;8.40;99.90;;;;;;4966632;28;20035;-63
2020/12/20 07:13:56;;;;;;;41.80;22.65;;;8.40;99.90;;;;;;4966606;28;20030;-63
2020/12/20 07:16:37;;;;;;;43.05;23.08;;;8.30;99.90;;;;;;4965775;28;20367;-63
2020/12/20 07:19:04;;;;;;;41.05;23.58;;;8.40;99.90;;;;;;4965919;28;20053;-63
2020/12/20 07:21:30;;;;;;;40.13;23.10;;;8.40;99.90;;;;;;4965331;28;20037;-63
2020/12/20 07:24:43;;;;;;;42.50;22.90;;;8.40;99.90;;;;;;4961885;28;20027;-63
2020/12/20 07:27:09;;;;;;;43.08;21.75;;;8.40;99.90;;;;;;4969722;28;20046;-63
2020/12/20 07:29:38;;;;;;;48.40;24.10;;;8.40;99.90;;;;;;4962740;28;20039;-63
2020/12/20 07:32:04;;;;;;;40.63;22.95;;;8.40;99.90;;;;;;4962687;28;20041;-63
2020/12/20 07:34:30;;;;;;;43.70;23.20;;;8.40;99.90;;;;;;4964646;28;20031;-63
2020/12/20 07:36:56;;;;;;;44.50;24.92;;;8.40;99.90;;;;;;4964902;28;20511;-63
2020/12/20 07:39:24;;;;;;;40.83;22.60;;;8.40;99.90;;;;;;4961001;28;20057;-63
2020/12/20 07:41:50;;;;;;;43.83;22.77;;;8.40;99.90;;;;;;4961813;28;20470;-63
2020/12/20 07:44:16;;;;;;;44.38;23.67;;;8.40;99.90;;;;;;4960831;28;20042;-63
2020/12/20 07:46:42;;;;;;;42.10;24.15;;;8.40;99.90;;;;;;4965320;28;20053;-63
2020/12/20 07:49:14;;;;;;;50.33;24.50;;;8.40;99.90;;;;;;4962587;28;20144;-63
2020/12/20 07:51:41;;;;;;;42.97;23.10;;;8.40;99.90;;;;;;4960649;28;20281;-63
2020/12/20 07:54:13;;;;;;;43.95;24.23;;;8.40;99.90;;;;;;4962276;28;20027;-63
2020/12/20 07:56:45;;;;;;;45.15;25.13;;;8.40;99.90;;;;;;4961786;28;20053;-63
2020/12/20 07:59:16;;;;;;;44.53;24.65;;;8.40;99.90;;;;;;4963175;28;20659;-63
2020/12/20 08:01:47;;;;;;;44.90;23.42;;;8.40;99.90;;;;;;4954458;28;20601;-63
2020/12/20 08:04:20;;;;;;;42.38;23.52;;;8.30;99.90;;;;;;4958948;28;20438;-64
2020/12/20 08:06:48;;;;;;;38.78;25.35;;;8.30;99.90;;;;;;4963595;28;20061;-63
2020/12/20 08:09:19;;;;;;;45.45;24.70;;;8.30;99.90;;;;;;4961221;28;20038;-63
2020/12/20 08:11:45;;;;;;;38.83;24.05;;;8.30;99.90;;;;;;4964291;28;20486;-63
2020/12/20 08:14:13;;;;;;;47.55;27.77;;;8.30;99.90;;;;;;4966739;28;20026;-63
2020/12/20 08:16:41;;;;;;;43.60;22.90;;;8.30;99.90;;;;;;4962405;28;20531;-64
2020/12/20 08:19:09;;;;;;;46.55;24.90;;;8.30;99.90;;;;;;4961693;28;20636;-63
2020/12/20 08:21:53;;;;;;;48.17;26.10;;;8.30;99.90;;;;;;4962695;28;20125;-63
2020/12/20 08:24:20;;;;;;;46.33;25.05;;;8.30;99.90;;;;;;4963712;28;20758;-64
2020/12/20 08:26:47;;;;;;;43.80;24.85;;;8.30;99.90;;;;;;4964547;28;20037;-64
2020/12/20 08:29:15;;;;;;;39.70;24.60;;;8.40;99.90;;;;;;4961649;28;20097;-63
2020/12/20 08:31:41;;;;;;;42.90;24.08;;;8.40;99.90;;;;;;4963688;28;20030;-63
2020/12/20 08:34:21;;;;;;;42.65;23.55;;;8.40;99.90;;;;;;4960887;28;20508;-63
2020/12/20 08:36:52;;;;;;;43.42;24.35;;;8.40;99.90;;;;;;4959138;28;20397;-63
2020/12/20 08:39:25;;;;;;;47.65;23.85;;;8.50;99.90;;;;;;4963242;28;20063;-63
2020/12/20 08:42:12;;;;;;;38.25;23.27;;;8.50;99.90;;;;;;4956377;28;20029;-64
2020/12/20 08:44:38;;;;;;;37.92;21.60;;;8.50;99.90;;;;;;4959166;28;20038;-63
2020/12/20 08:47:09;;;;;;;52.53;23.98;;;8.60;99.90;;;;;;4960062;28;20066;-63
2020/12/20 08:49:36;;;;;;;50.58;21.58;;;8.60;99.90;;;;;;4959528;28;20033;-63
2020/12/20 08:52:13;;;;;;;38.28;20.90;;;8.60;99.90;;;;;;4955783;28;20118;-63
2020/12/20 08:54:40;;;;;;;36.85;20.67;;;8.60;99.90;;;;;;4964541;28;20429;-63
2020/12/20 08:57:08;;;;;;;42.42;20.35;;;8.70;99.90;;;;;;4962739;28;20038;-63
2020/12/20 08:59:42;;;;;;;37.85;20.00;;;8.70;99.90;;;;;;4961346;28;20038;-63
2020/12/20 09:02:16;;;;;;;38.45;19.10;;;8.70;99.90;;;;;;4961344;28;20081;-63
2020/12/20 09:04:54;;;;;;;32.75;18.52;;;8.80;99.90;;;;;;4963959;28;20066;-64
2020/12/20 09:07:40;;;;;;;35.60;19.77;;;8.80;99.90;;;;;;4967399;28;20026;-63
2020/12/20 09:10:25;;;;;;;44.35;20.10;;;8.80;99.90;;;;;;4965419;28;20034;-63
2020/12/20 09:12:56;;;;;;;40.28;18.48;;;8.80;99.90;;;;;;4960932;28;20530;-64
2020/12/20 09:15:29;;;;;;;39.85;18.60;;;8.80;99.90;;;;;;4962406;28;20018;-63
2020/12/20 09:17:59;;;;;;;45.88;20.55;;;8.80;99.90;;;;;;4960972;28;20373;-63
2020/12/20 09:20:29;;;;;;;33.20;18.23;;;8.80;99.90;;;;;;4966792;28;20037;-63
2020/12/20 09:22:57;;;;;;;43.08;18.70;;;8.80;99.90;;;;;;4964110;28;20045;-64
2020/12/20 09:25:41;;;;;;;48.50;19.77;;;8.80;99.90;;;;;;4968694;28;20038;-64
2020/12/20 09:28:12;;;;;;;40.75;19.65;;;8.80;99.90;;;;;;4963196;28;20181;-63
2020/12/20 09:30:42;;;;;;;46.95;20.67;;;8.80;99.90;;;;;;4962079;28;20026;-63
2020/12/20 09:33:18;;;;;;;;;;;8.90;99.90;;;;;;4967975;28;20120;-63
2020/12/20 09:36:03;;;;;;;38.45;18.35;;;8.90;99.90;;;;;;4967691;28;19913;-63
2020/12/20 09:38:43;;;;;;;41.70;20.50;;;8.90;99.90;;;;;;4964689;28;20150;-64
2020/12/20 09:41:14;;;;;;;41.55;18.83;;;8.80;99.90;;;;;;4966964;28;20563;-64
2020/12/20 09:43:41;;;;;;;39.85;18.27;;;8.90;99.90;;;;;;4965945;28;20038;-64
2020/12/20 09:46:08;;;;;;;40.53;20.08;;;8.90;99.90;;;;;;4965873;28;20562;-64
2020/12/20 09:48:34;;;;;;;39.63;18.30;;;8.90;99.90;;;;;;4966901;28;20135;-64
2020/12/20 09:51:00;;;;;;;43.83;19.48;;;8.90;99.90;;;;;;4966684;28;20137;-64
2020/12/20 09:53:26;;;;;;;39.88;18.42;;;8.90;99.90;;;;;;4961966;28;20031;-64
2020/12/20 09:55:52;;;;;;;37.75;19.95;;;8.90;99.90;;;;;;4962365;28;20042;-64
2020/12/20 09:58:18;;;;;;;41.55;18.67;;;9.00;99.90;;;;;;4964477;28;20050;-64
2020/12/20 10:00:44;;;;;;;36.17;17.85;;;8.90;99.90;;;;;;4965648;28;20061;-63
2020/12/20 10:03:11;;;;;;;45.22;19.25;;;9.00;99.90;;;;;;4956663;28;20076;-63
2020/12/20 10:05:43;;;;;;;32.05;17.40;;;9.00;99.90;;;;;;4960988;28;20117;-63
2020/12/20 10:08:09;;;;;;;44.55;17.85;;;9.00;99.90;;;;;;4966014;28;20050;-63
2020/12/20 10:10:35;;;;;;;31.25;16.33;;;9.00;99.90;;;;;;4957770;28;20450;-63
2020/12/20 10:13:01;;;;;;;31.08;15.75;;;9.00;99.90;;;;;;4957893;28;20041;-63
2020/12/20 10:15:27;;;;;;;41.03;16.10;;;9.10;99.90;;;;;;4959360;28;20080;-63
2020/12/20 10:17:53;;;;;;;32.15;15.13;;;9.10;99.90;;;;;;4962670;28;20030;-64
2020/12/20 10:20:19;;;;;;;42.75;15.55;;;9.10;99.90;;;;;;4959145;28;20114;-63
2020/12/20 10:22:44;;;;;;;33.17;14.43;;;9.10;99.90;;;;;;4966614;28;20821;-63
2020/12/20 10:25:11;;;;;;;27.45;14.65;;;9.20;99.90;;;;;;4963720;28;20049;-63
2020/12/20 10:27:37;;;;;;;29.13;13.32;;;9.10;99.90;;;;;;4967936;28;20767;-64
2020/12/20 10:30:03;;;;;;;35.83;14.43;;;9.20;99.90;;;;;;4964087;28;20082;-63
2020/12/20 10:32:29;;;;;;;28.40;13.93;;;9.20;99.90;;;;;;4964870;28;20042;-63
2020/12/20 10:34:55;;;;;;;35.75;14.30;;;9.20;99.90;;;;;;4961944;28;20113;-63
2020/12/20 10:37:21;;;;;;;30.48;13.68;;;9.20;99.90;;;;;;4964280;28;20473;-63
2020/12/20 10:39:47;;;;;;;27.48;12.73;;;9.20;99.90;;;;;;4962707;28;20038;-63
2020/12/20 10:42:14;;;;;;;35.75;15.48;;;9.20;99.90;;;;;;4964813;28;20652;-63
2020/12/20 10:44:40;;;;;;;37.25;14.50;;;9.20;99.90;;;;;;4967214;28;20034;-64
2020/12/20 10:47:06;;;;;;;39.38;15.18;;;9.30;99.90;;;;;;4966532;28;20510;-63
2020/12/20 10:49:32;;;;;;;30.83;15.90;;;9.20;99.90;;;;;;4965574;28;20022;-63
2020/12/20 10:51:58;;;;;;;38.10;13.77;;;9.20;99.90;;;;;;4964756;28;20203;-63
2020/12/20 10:54:29;;;;;;;30.02;13.02;;;9.20;99.90;;;;;;4960739;28;20033;-63
2020/12/20 10:56:58;;;;;;;30.10;12.82;;;9.30;99.90;;;;;;4964508;28;20030;-63
2020/12/20 10:59:31;;;;;;;48.85;15.65;;;9.30;99.90;;;;;;4965138;28;20046;-64
2020/12/20 11:01:57;;;;;;;36.83;13.60;;;9.40;99.90;;;;;;4966573;28;20569;-63
2020/12/20 11:04:24;;;;;;;24.30;12.90;;;9.50;99.90;;;;;;4960512;28;20396;-63
2020/12/20 11:06:57;;;;;;;32.65;13.25;;;9.70;99.90;;;;;;4959300;28;20121;-63
2020/12/20 11:09:26;;;;;;;26.10;11.60;;;9.80;99.90;;;;;;4960356;28;20039;-63
2020/12/20 11:11:53;;;;;;;28.30;11.40;;;9.90;99.90;;;;;;4965921;28;20185;-63
2020/12/20 11:14:19;;;;;;;25.05;11.27;;;10.10;99.90;;;;;;4963707;28;20038;-64
2020/12/20 11:16:45;;;;;;;31.65;11.43;;;10.20;99.90;;;;;;4967402;28;20121;-63
2020/12/20 11:19:13;;;;;;;30.17;10.13;;;10.20;99.90;;;;;;4966889;28;20866;-63
2020/12/20 11:21:40;;;;;;;25.10;10.63;;;10.00;99.90;;;;;;4964630;28;20066;-63
2020/12/20 11:24:06;;;;;;;30.30;11.77;;;9.80;99.90;;;;;;4966835;28;20474;-63
2020/12/20 11:26:35;;;;;;;25.08;9.88;;;9.60;99.90;;;;;;4974283;28;20811;-63
2020/12/20 11:29:00;;;;;;;27.92;12.48;;;9.60;99.90;;;;;;4964285;28;20046;-63
2020/12/20 11:31:27;;;;;;;29.50;12.30;;;9.50;99.90;;;;;;4963673;28;20042;-63
2020/12/20 11:33:53;;;;;;;28.30;12.05;;;9.50;99.90;;;;;;4961889;28;20034;-63
2020/12/20 11:36:21;;;;;;;32.58;11.52;;;9.40;99.90;;;;;;4959023;28;20443;-64
2020/12/20 11:38:48;;;;;;;33.53;13.35;;;9.40;99.90;;;;;;4958326;28;20420;-64
2020/12/20 11:41:14;;;;;;;24.42;10.93;;;9.40;99.90;;;;;;4960381;28;20055;-63
2020/12/20 11:43:41;;;;;;;25.05;10.48;;;9.40;99.90;;;;;;4960492;28;20062;-64
2020/12/20 11:46:09;;;;;;;29.83;11.20;;;9.40;99.90;;;;;;4962063;28;20375;-63
2020/12/20 11:48:36;;;;;;;26.17;10.52;;;9.40;99.90;;;;;;4958167;28;20501;-63
2020/12/20 11:51:02;;;;;;;31.23;10.88;;;9.40;99.90;;;;;;4963976;28;20034;-64
2020/12/20 11:53:28;;;;;;;27.10;11.00;;;9.30;99.90;;;;;;4958829;28;21213;-63
2020/12/20 11:55:54;;;;;;;25.42;10.27;;;9.40;99.90;;;;;;4960106;28;20037;-63
2020/12/20 11:58:20;;;;;;;33.78;11.27;;;9.30;99.90;;;;;;4954320;28;20141;-64
2020/12/20 12:00:47;;;;;;;38.40;10.90;;;9.30;99.90;;;;;;4959281;28;20039;-63
2020/12/20 12:03:14;;;;;;;24.85;9.38;;;9.30;99.90;;;;;;4995554;28;20066;-63
2020/12/20 12:05:43;;;;;;;24.30;9.50;;;9.30;99.90;;;;;;4970844;28;20057;-63
2020/12/20 12:08:10;;;;;;;38.67;11.60;;;9.30;99.90;;;;;;4966821;28;20041;-63
2020/12/20 12:10:41;;;;;;;27.70;9.88;;;9.40;99.90;;;;;;4967531;28;20393;-64
2020/12/20 12:13:07;;;;;;;20.17;9.73;;;9.50;99.90;;;;;;4967446;28;20027;-63
2020/12/20 12:15:33;;;;;;;30.63;9.00;;;9.50;99.90;;;;;;4966675;28;20037;-64
2020/12/20 12:17:59;;;;;;;29.15;10.77;;;9.50;99.90;;;;;;4968693;28;20035;-63
2020/12/20 12:20:25;;;;;;;24.65;8.77;;;9.50;99.90;;;;;;4966829;28;20031;-63
2020/12/20 12:22:51;;;;;;;21.25;9.18;;;9.50;99.90;;;;;;4971303;28;20030;-63
2020/12/20 12:25:17;;;;;;;29.23;10.63;;;9.50;99.90;;;;;;4969888;28;20030;-64
2020/12/20 12:27:43;;;;;;;26.98;9.88;;;9.50;99.90;;;;;;4969135;28;20035;-63
2020/12/20 12:30:10;;;;;;;27.42;10.68;;;9.50;99.90;;;;;;4965593;28;20037;-63
2020/12/20 12:32:37;;;;;;;25.42;9.70;;;9.40;99.90;;;;;;4967212;28;20475;-64
2020/12/20 12:35:07;;;;;;;27.42;10.82;;;9.40;99.90;;;;;;4965230;28;20027;-63
2020/12/20 12:37:33;;;;;;;;;;;9.40;99.90;;;;;;4968145;28;20034;-63
2020/12/20 12:39:58;;;;;;;31.63;10.10;;;9.40;99.90;;;;;;4968388;28;20674;-64
2020/12/20 12:42:25;;;;;;;33.95;11.60;;;9.40;99.90;;;;;;4970257;28;20037;-63